Waka, Texas
Current Conditions -  °F | °C
As of 6:55 AM on Thursday 27 Nov 2014 (Local Time) from KPYX Reporting Station
Clear Clear  
Wind Chill: 12°   Ceiling: Unl
Heat Index: 21°   Visibility: 10mi
Dew Point: 16°   Wind: 8mph
Humidity: 79%   Direction: 190°S
Pressure: 30.42"   Gusts: NA
Location:  36.28°N, 101.05°W
Report Text: KPYX 271255Z AUTO 19007KT 10SM CLR M06/M09 A3042 RMK AO2 T10591090
Loading
Personal Weather Stations






























Interactive Weather Map New forecast layout! Learn more

10-Day Weather Forecast

Advertisements
Track Severe Weather on mobile